Terminal Aerodrome Forecast
Issued by NWS

Home | Current Version | Previous Version | Text Only | Print | Product List | Glossary On
Versions: 1 2 3 4 5 6 7 8 9 10 11 12 13 14 15 16 17 18 19
865
FTUS43 KJKL 011140
TAFSME
TAF
KSME 011140Z 0112/0212 VRB03KT P6SM VCSH BKN035
     FM011500 24008KT P6SM SCT030
     FM011800 24006KT P6SM VCTS BKN040CB
     FM020900 VRB03KT 1SM BR SCT002=

USA.gov is the U.S. government's official web portal to all federal, state and local government web resources and services.